Time;durP1;ratioP1;P1;durP2;ratioP2;P2;SDS_P1;SDS_P2;PMS_P1;PMS_P2;Temp;Humidity;BMP_temperature;BMP_pressure;BME280_temperature;BME280_humidity;BME280_pressure;Samples;Min_cycle;Max_cycle;Signal;HPM_P1;HPM_P2
2022/06/17 00:01:01;;;;;;;0.90;0.90;;;23.00;70.20;;;;;;5066582;28;43891;-70
2022/06/17 00:03:31;;;;;;;1.27;1.10;;;23.00;70.30;;;;;;5067174;28;43447;-70
2022/06/17 00:06:00;;;;;;;0.97;0.97;;;23.00;70.40;;;;;;5066422;28;44015;-69
2022/06/17 00:08:30;;;;;;;0.93;0.93;;;23.00;70.40;;;;;;5066637;28;43943;-70
2022/06/17 00:10:58;;;;;;;0.90;0.90;;;22.90;70.30;;;;;;5066217;28;43899;-69
2022/06/17 00:13:26;;;;;;;0.90;0.90;;;22.90;70.50;;;;;;5066760;28;43955;-70
2022/06/17 00:15:55;;;;;;;0.97;0.97;;;23.00;71.40;;;;;;5066244;28;44867;-70
2022/06/17 00:18:24;;;;;;;1.00;1.00;;;23.10;71.20;;;;;;5066241;28;43948;-70
2022/06/17 00:20:52;;;;;;;1.10;1.10;;;23.30;70.70;;;;;;5066310;28;43848;-70
2022/06/17 00:23:21;;;;;;;0.90;0.90;;;23.50;70.00;;;;;;5066579;28;43875;-70
2022/06/17 00:25:49;;;;;;;1.10;1.10;;;23.70;69.10;;;;;;5065786;28;44985;-70
2022/06/17 00:28:19;;;;;;;1.00;1.00;;;23.90;68.40;;;;;;5066041;28;44037;-69
2022/06/17 00:30:48;;;;;;;1.00;1.00;;;24.00;67.80;;;;;;5066071;28;43931;-69
2022/06/17 00:33:18;;;;;;;1.00;1.00;;;24.20;67.40;;;;;;5066291;28;44014;-69
2022/06/17 00:35:47;;;;;;;0.93;0.93;;;24.30;67.00;;;;;;5066065;28;44802;-69
2022/06/17 00:38:16;;;;;;;1.00;1.00;;;24.40;66.60;;;;;;5068219;28;43917;-70
2022/06/17 00:40:45;;;;;;;0.93;0.93;;;24.30;66.70;;;;;;5069396;28;44048;-69
2022/06/17 00:43:18;;;;;;;0.93;0.93;;;24.20;67.10;;;;;;5068424;28;43877;-69
2022/06/17 00:45:48;;;;;;;1.03;1.03;;;24.00;67.50;;;;;;5067885;28;45754;-70
2022/06/17 00:48:21;;;;;;;0.90;0.90;;;23.80;67.90;;;;;;5067348;28;43937;-70
2022/06/17 00:50:51;;;;;;;1.00;1.00;;;23.60;68.40;;;;;;5069265;28;43962;-69
2022/06/17 00:53:20;;;;;;;1.00;1.00;;;23.50;68.80;;;;;;5069766;28;43977;-69
2022/06/17 00:55:51;;;;;;;1.00;1.00;;;23.40;69.10;;;;;;5067852;28;46111;-69
2022/06/17 00:58:21;;;;;;;0.87;0.87;;;23.20;69.20;;;;;;5069251;28;43956;-69
2022/06/17 01:00:50;;;;;;;0.90;0.90;;;23.20;69.50;;;;;;5069089;28;43347;-68
2022/06/17 01:03:22;;;;;;;1.07;1.07;;;23.10;69.60;;;;;;5068172;28;43942;-69
2022/06/17 01:05:53;;;;;;;0.97;0.97;;;23.10;69.90;;;;;;5047436;28;45729;-70
2022/06/17 01:11:10;;;;;;;0.90;0.90;;;23.00;70.10;;;;;;5067498;28;43952;-69
2022/06/17 01:13:38;;;;;;;0.97;0.97;;;23.00;70.20;;;;;;5067725;28;43950;-70
2022/06/17 01:16:06;;;;;;;0.83;0.83;;;23.00;70.30;;;;;;5067717;28;44274;-69
2022/06/17 01:18:39;;;;;;;0.80;0.80;;;22.90;70.30;;;;;;5067153;28;43990;-68
2022/06/17 01:21:14;;;;;;;0.90;0.90;;;22.90;70.30;;;;;;5067515;28;43845;-69
2022/06/17 01:23:48;;;;;;;1.10;1.10;;;22.90;70.40;;;;;;5067892;28;43361;-69
2022/06/17 01:26:22;;;;;;;0.90;0.90;;;22.90;71.20;;;;;;5068868;28;44003;-69
2022/06/17 01:28:50;;;;;;;0.97;0.97;;;23.00;71.30;;;;;;5068814;28;44037;-69
2022/06/17 01:31:19;;;;;;;0.90;0.90;;;23.20;70.90;;;;;;5067193;28;43897;-70
2022/06/17 01:33:47;;;;;;;0.90;0.90;;;23.40;70.20;;;;;;5067598;28;44029;-69
2022/06/17 01:36:16;;;;;;;1.10;1.10;;;23.60;69.20;;;;;;5068577;28;43989;-69
2022/06/17 01:38:47;;;;;;;0.80;0.80;;;23.80;68.60;;;;;;5060576;28;43877;-69
2022/06/17 01:41:15;;;;;;;1.00;1.00;;;24.00;68.00;;;;;;5062270;28;43881;-69
2022/06/17 01:43:48;;;;;;;0.90;0.90;;;24.20;67.50;;;;;;5067519;28;43885;-70
2022/06/17 01:46:18;;;;;;;1.20;1.20;;;24.30;67.10;;;;;;5067068;28;46926;-70
2022/06/17 01:48:48;;;;;;;0.90;0.90;;;24.40;66.50;;;;;;5065455;28;44683;-69
2022/06/17 01:51:16;;;;;;;0.80;0.80;;;24.30;66.50;;;;;;5068627;28;44030;-69
2022/06/17 01:53:48;;;;;;;1.00;1.00;;;24.20;66.90;;;;;;5069105;28;43455;-69
2022/06/17 01:56:17;;;;;;;1.00;1.00;;;24.00;68.00;;;;;;5068222;28;43879;-69
2022/06/17 01:58:50;;;;;;;0.80;0.80;;;23.80;67.60;;;;;;5066744;28;43892;-70
2022/06/17 02:01:22;;;;;;;0.83;0.83;;;23.60;68.20;;;;;;5066787;28;44181;-70
2022/06/17 02:03:52;;;;;;;0.87;0.87;;;23.50;68.70;;;;;;5067236;28;44000;-69
2022/06/17 02:06:23;;;;;;;1.00;1.00;;;23.40;69.00;;;;;;5066643;28;46323;-69
2022/06/17 02:08:53;;;;;;;0.80;0.80;;;23.30;69.20;;;;;;5066618;28;44691;-69
2022/06/17 02:11:22;;;;;;;0.80;0.80;;;23.20;69.40;;;;;;5066654;28;44100;-69
2022/06/17 02:13:58;;;;;;;0.80;0.80;;;23.10;69.60;;;;;;5067002;28;44150;-69
2022/06/17 02:16:51;;;;;;;0.90;0.90;;;23.10;69.80;;;;;;5061651;28;43853;-69
2022/06/17 02:19:37;;;;;;;0.80;0.80;;;23.00;69.90;;;;;;5066550;28;44656;-69
2022/06/17 02:22:10;;;;;;;1.10;1.10;;;23.00;70.10;;;;;;5067903;28;43962;-68
2022/06/17 02:24:40;;;;;;;0.80;0.80;;;23.00;70.20;;;;;;5066921;28;44016;-69
2022/06/17 02:27:10;;;;;;;1.00;1.00;;;22.90;70.20;;;;;;5067815;28;43964;-70
2022/06/17 02:29:38;;;;;;;0.90;0.90;;;22.90;70.30;;;;;;5066210;28;44940;-69
2022/06/17 02:32:07;;;;;;;1.00;1.00;;;22.90;70.30;;;;;;5067451;28;43980;-69
2022/06/17 02:34:36;;;;;;;0.80;0.80;;;22.90;71.20;;;;;;5066812;28;43938;-69
2022/06/17 02:37:07;;;;;;;1.50;0.90;;;23.00;71.40;;;;;;5061531;28;43720;-69
2022/06/17 02:39:35;;;;;;;0.80;0.80;;;23.10;70.90;;;;;;5059944;28;44704;-69
2022/06/17 02:42:05;;;;;;;0.80;0.80;;;23.40;70.90;;;;;;5061386;28;43863;-70
2022/06/17 02:44:35;;;;;;;0.90;0.90;;;23.60;69.30;;;;;;5060412;28;43871;-70
2022/06/17 02:47:04;;;;;;;0.90;0.90;;;23.80;68.70;;;;;;5065935;28;45433;-69
2022/06/17 02:49:34;;;;;;;0.80;0.80;;;24.00;68.10;;;;;;5065785;28;44653;-69
2022/06/17 02:52:04;;;;;;;0.80;0.80;;;24.10;67.40;;;;;;5065921;28;43869;-69
2022/06/17 02:54:34;;;;;;;1.10;1.10;;;24.30;67.10;;;;;;5067733;28;43355;-69
2022/06/17 02:57:02;;;;;;;0.73;0.73;;;24.30;66.70;;;;;;5067310;28;43933;-69
2022/06/17 02:59:34;;;;;;;1.00;1.00;;;24.40;66.20;;;;;;5065766;28;44041;-69
2022/06/17 03:02:03;;;;;;;1.07;1.07;;;24.30;66.20;;;;;;5065618;28;44040;-69
2022/06/17 03:04:36;;;;;;;0.90;0.90;;;24.20;66.60;;;;;;5066354;28;44026;-70
2022/06/17 03:07:10;;;;;;;1.00;1.00;;;24.00;67.20;;;;;;5065705;28;44984;-69
2022/06/17 03:09:38;;;;;;;0.83;0.83;;;23.80;67.40;;;;;;5065714;28;44555;-70
2022/06/17 03:12:09;;;;;;;0.80;0.80;;;23.60;68.10;;;;;;5063376;28;43979;-69
2022/06/17 03:14:42;;;;;;;0.90;0.90;;;23.50;68.60;;;;;;5066074;28;43980;-69
2022/06/17 03:17:12;;;;;;;0.83;0.83;;;23.30;68.70;;;;;;5065751;28;46087;-69
2022/06/17 03:19:40;;;;;;;0.90;0.90;;;23.20;69.00;;;;;;5065592;28;44700;-69
2022/06/17 03:22:11;;;;;;;0.90;0.90;;;23.20;69.30;;;;;;5065845;28;44444;-70
2022/06/17 03:24:43;;;;;;;0.90;0.90;;;23.10;69.50;;;;;;5066095;28;43968;-69
2022/06/17 03:27:13;;;;;;;0.90;0.90;;;23.00;69.60;;;;;;5067369;28;43837;-69
2022/06/17 03:29:44;;;;;;;0.87;0.87;;;23.00;69.90;;;;;;5058879;28;44376;-69
2022/06/17 03:32:15;;;;;;;0.97;0.97;;;23.00;70.00;;;;;;5059416;28;44023;-68
2022/06/17 03:34:46;;;;;;;0.90;0.90;;;22.90;70.00;;;;;;5066034;28;43920;-69
2022/06/17 03:37:17;;;;;;;0.80;0.80;;;22.90;70.10;;;;;;5065451;28;46009;-70
2022/06/17 03:39:47;;;;;;;0.90;0.90;;;22.90;71.00;;;;;;5065449;28;44627;-69
2022/06/17 03:42:18;;;;;;;0.80;0.80;;;22.90;70.30;;;;;;5067122;28;43903;-70
2022/06/17 03:44:55;;;;;;;0.80;0.80;;;22.90;70.40;;;;;;5065982;28;43947;-69
2022/06/17 03:47:25;;;;;;;1.07;1.07;;;22.90;71.20;;;;;;5065072;28;46110;-70
2022/06/17 03:49:55;;;;;;;0.90;0.90;;;22.90;71.30;;;;;;5065175;28;43960;-69
2022/06/17 03:52:29;;;;;;;0.90;0.90;;;23.10;70.90;;;;;;5065342;28;43901;-69
2022/06/17 03:55:13;;;;;;;0.90;0.90;;;23.30;70.30;;;;;;5065727;28;43865;-70
2022/06/17 03:57:43;;;;;;;0.90;0.90;;;23.50;69.40;;;;;;5065126;28;45413;-69
2022/06/17 04:00:16;;;;;;;0.80;0.80;;;23.70;68.70;;;;;;5065164;28;46030;-69
2022/06/17 04:02:48;;;;;;;0.87;0.87;;;23.90;68.10;;;;;;5065036;28;43975;-69
2022/06/17 04:05:16;;;;;;;0.73;0.73;;;24.10;67.60;;;;;;5067224;28;43846;-69
2022/06/17 04:07:45;;;;;;;1.00;1.00;;;24.20;67.10;;;;;;5064987;28;43942;-69
2022/06/17 04:10:14;;;;;;;1.13;1.10;;;24.30;66.60;;;;;;5065053;28;45722;-69
2022/06/17 04:12:50;;;;;;;1.27;1.07;;;24.30;66.50;;;;;;5066486;28;44000;-69
2022/06/17 04:15:33;;;;;;;1.07;1.07;;;24.20;66.70;;;;;;5069307;28;43489;-69
2022/06/17 04:18:02;;;;;;;1.30;1.20;;;24.00;67.00;;;;;;5068415;28;45591;-69
2022/06/17 04:20:40;;;;;;;2.07;1.30;;;23.80;66.90;;;;;;5068830;28;43948;-69
2022/06/17 04:23:13;;;;;;;1.73;1.70;;;23.60;67.30;;;;;;5062006;28;43985;-69
2022/06/17 04:25:59;;;;;;;1.30;1.30;;;23.50;68.10;;;;;;5069026;28;43959;-70
2022/06/17 04:28:32;;;;;;;1.60;1.50;;;23.40;68.70;;;;;;5068572;28;44042;-69
2022/06/17 04:31:06;;;;;;;1.67;1.57;;;23.20;68.90;;;;;;5068338;28;43339;-69
2022/06/17 04:33:40;;;;;;;1.40;1.30;;;23.10;69.20;;;;;;5068400;28;43774;-69
2022/06/17 04:36:13;;;;;;;1.70;1.60;;;23.10;69.40;;;;;;5068855;28;43778;-69
2022/06/17 04:38:49;;;;;;;1.60;1.60;;;23.00;69.50;;;;;;5068324;28;45921;-69
2022/06/17 04:41:36;;;;;;;1.90;1.80;;;23.00;69.80;;;;;;5064574;28;45943;-69
2022/06/17 04:44:12;;;;;;;1.50;1.40;;;22.90;69.80;;;;;;5068451;28;43987;-69
2022/06/17 04:46:44;;;;;;;1.93;1.83;;;22.90;70.00;;;;;;5068541;28;43944;-69
2022/06/17 04:49:23;;;;;;;2.63;2.17;;;22.90;70.00;;;;;;5067797;28;45300;-70
2022/06/17 04:51:54;;;;;;;2.00;1.90;;;22.90;70.10;;;;;;5067707;28;43858;-70
2022/06/17 04:54:23;;;;;;;2.10;2.00;;;22.90;70.20;;;;;;5061772;28;43341;-69
2022/06/17 04:57:17;;;;;;;2.20;2.00;;;22.90;70.20;;;;;;5053221;28;43989;-69
2022/06/17 04:59:48;;;;;;;2.30;2.13;;;22.90;71.20;;;;;;5067968;28;45939;-70
2022/06/17 05:02:20;;;;;;;2.50;2.30;;;23.00;71.30;;;;;;5067861;28;44684;-69
2022/06/17 05:05:13;;;;;;;2.13;2.03;;;23.20;70.70;;;;;;5065937;28;43351;-69
2022/06/17 05:07:42;;;;;;;2.27;1.93;;;23.40;69.70;;;;;;5068243;28;44009;-69
2022/06/17 05:10:30;;;;;;;2.67;2.50;;;23.60;69.00;;;;;;5067876;28;46128;-69
2022/06/17 05:13:00;;;;;;;2.23;2.10;;;23.80;68.20;;;;;;5067146;28;44419;-70
2022/06/17 05:15:30;;;;;;;2.40;2.20;;;24.00;67.80;;;;;;5068082;28;43821;-69
2022/06/17 05:17:59;;;;;;;2.60;2.40;;;24.20;67.30;;;;;;5068376;28;44089;-69
2022/06/17 05:20:27;;;;;;;2.30;2.20;;;24.30;66.80;;;;;;5067821;28;45618;-69
2022/06/17 05:22:57;;;;;;;2.30;2.10;;;24.40;66.50;;;;;;5067632;28;44065;-69
2022/06/17 05:25:30;;;;;;;2.53;2.43;;;24.30;66.20;;;;;;5067740;28;44017;-69
2022/06/17 05:28:00;;;;;;;2.30;2.20;;;24.30;66.50;;;;;;5068237;28;43625;-70
2022/06/17 05:30:32;;;;;;;2.90;2.70;;;24.10;66.70;;;;;;5067579;28;45608;-69
2022/06/17 05:33:02;;;;;;;2.10;2.00;;;23.90;66.90;;;;;;5060726;28;44749;-70
2022/06/17 05:35:31;;;;;;;2.30;2.20;;;23.70;67.70;;;;;;5061326;28;43418;-69
2022/06/17 05:37:59;;;;;;;2.30;2.20;;;23.50;68.10;;;;;;5065683;28;43999;-68
2022/06/17 05:40:28;;;;;;;2.77;2.57;;;23.40;68.40;;;;;;5067467;28;45096;-69
2022/06/17 05:42:57;;;;;;;2.23;2.13;;;23.30;68.80;;;;;;5067317;28;43903;-69
2022/06/17 05:45:27;;;;;;;2.30;2.20;;;23.20;69.00;;;;;;5067641;28;43395;-70
2022/06/17 05:48:16;;;;;;;2.40;2.30;;;23.10;69.30;;;;;;5067302;28;43955;-69
2022/06/17 05:50:53;;;;;;;2.57;2.47;;;23.00;69.40;;;;;;5067070;28;46554;-69
2022/06/17 05:53:56;;;;;;;2.70;2.50;;;23.00;69.70;;;;;;5055190;28;43640;-70
2022/06/17 05:56:28;;;;;;;2.80;2.60;;;22.90;69.70;;;;;;5067303;28;43921;-69
2022/06/17 05:58:56;;;;;;;2.60;2.40;;;22.90;69.90;;;;;;5067896;28;43621;-69
2022/06/17 06:01:24;;;;;;;2.27;2.17;;;22.90;70.00;;;;;;5068352;28;43587;-70
2022/06/17 06:03:54;;;;;;;2.20;2.10;;;22.80;70.00;;;;;;5066775;28;45104;-69
2022/06/17 06:06:22;;;;;;;2.43;2.33;;;22.80;70.00;;;;;;5067218;28;44035;-69
2022/06/17 06:08:54;;;;;;;2.30;2.20;;;22.80;70.10;;;;;;5067434;28;44079;-69
2022/06/17 06:11:22;;;;;;;2.43;2.33;;;22.80;71.10;;;;;;5068275;28;43862;-69
2022/06/17 06:13:52;;;;;;;2.30;2.20;;;22.90;71.30;;;;;;5066572;28;45038;-69
2022/06/17 06:16:21;;;;;;;2.33;2.30;;;23.00;70.90;;;;;;5066946;28;43892;-69
2022/06/17 06:18:54;;;;;;;2.47;2.27;;;23.20;70.30;;;;;;5068581;28;44002;-69
2022/06/17 06:21:26;;;;;;;2.40;2.30;;;23.40;69.40;;;;;;5066626;28;44038;-70
2022/06/17 06:23:59;;;;;;;2.73;2.53;;;23.60;68.70;;;;;;5068123;28;43778;-69
2022/06/17 06:26:34;;;;;;;2.37;2.27;;;23.80;68.10;;;;;;5061257;28;44063;-70
2022/06/17 06:29:30;;;;;;;2.30;2.20;;;24.00;67.70;;;;;;5068507;28;43995;-70
2022/06/17 06:31:58;;;;;;;2.47;2.37;;;24.20;67.20;;;;;;5067948;28;43955;-70
2022/06/17 06:34:35;;;;;;;2.70;2.60;;;24.30;66.70;;;;;;5065883;28;44678;-70
2022/06/17 06:37:04;;;;;;;2.47;2.37;;;24.20;66.40;;;;;;5066371;28;43856;-69
2022/06/17 06:39:32;;;;;;;2.00;2.00;;;24.10;66.70;;;;;;5066858;28;43988;-69
2022/06/17 06:42:04;;;;;;;2.47;2.37;;;23.90;67.70;;;;;;5067621;28;44796;-69
2022/06/17 06:44:33;;;;;;;2.20;2.20;;;23.70;67.10;;;;;;5066076;28;44359;-69
2022/06/17 06:47:17;;;;;;;2.10;2.00;;;23.50;68.00;;;;;;5066355;28;43478;-70
2022/06/17 06:49:54;;;;;;;2.27;2.17;;;23.40;68.50;;;;;;5066523;28;43991;-69
2022/06/17 06:52:25;;;;;;;2.43;2.33;;;23.20;68.70;;;;;;5066025;28;45958;-69
2022/06/17 06:54:54;;;;;;;2.40;2.30;;;23.10;69.00;;;;;;5066200;28;45016;-69
2022/06/17 06:57:25;;;;;;;2.07;2.00;;;23.00;69.20;;;;;;5066251;28;43351;-70
2022/06/17 07:00:01;;;;;;;2.30;2.20;;;23.00;69.50;;;;;;5066677;28;43827;-69
2022/06/17 07:02:31;;;;;;;2.20;2.10;;;22.90;69.60;;;;;;5066059;28;45875;-69
2022/06/17 07:05:00;;;;;;;2.27;2.27;;;22.90;69.90;;;;;;5067736;28;43903;-70
2022/06/17 07:07:37;;;;;;;1.93;1.93;;;22.80;69.90;;;;;;5066118;28;44046;-69
2022/06/17 07:10:06;;;;;;;2.40;2.30;;;22.80;70.00;;;;;;5067933;28;44082;-70
2022/06/17 07:12:34;;;;;;;2.07;2.07;;;22.80;70.10;;;;;;5067300;28;44033;-70
2022/06/17 07:15:03;;;;;;;2.30;2.20;;;22.80;70.20;;;;;;5067292;28;44011;-69
2022/06/17 07:17:34;;;;;;;2.00;2.00;;;22.80;70.20;;;;;;5067515;28;43876;-68
2022/06/17 07:20:04;;;;;;;2.40;2.30;;;22.80;70.30;;;;;;5067867;28;43447;-69
2022/06/17 07:22:38;;;;;;;2.20;2.10;;;22.80;70.90;;;;;;5067441;28;43607;-70
2022/06/17 07:25:08;;;;;;;2.20;2.20;;;22.80;71.20;;;;;;5067152;28;43445;-69
2022/06/17 07:27:36;;;;;;;2.77;2.57;;;22.90;71.00;;;;;;5067367;28;44023;-69
2022/06/17 07:30:05;;;;;;;2.20;2.10;;;23.10;70.40;;;;;;5067725;28;44163;-69
2022/06/17 07:32:33;;;;;;;2.27;2.17;;;23.30;69.70;;;;;;5067162;28;44003;-69
2022/06/17 07:35:03;;;;;;;2.20;2.10;;;23.50;69.00;;;;;;5065648;28;45495;-68
2022/06/17 07:40:18;;;;;;;2.70;2.30;;;23.90;67.90;;;;;;5067519;28;43304;-69
2022/06/17 07:42:46;;;;;;;2.40;2.30;;;24.10;67.30;;;;;;5066849;28;44119;-69
2022/06/17 07:45:15;;;;;;;2.70;2.60;;;24.20;67.00;;;;;;5066891;28;43868;-70
2022/06/17 07:47:43;;;;;;;2.40;2.30;;;24.30;66.60;;;;;;5063960;28;44067;-70
2022/06/17 07:50:13;;;;;;;2.30;2.27;;;24.20;66.30;;;;;;5067429;28;44103;-69
2022/06/17 07:52:42;;;;;;;2.10;2.10;;;24.10;66.50;;;;;;5066616;28;43619;-68
2022/06/17 07:55:10;;;;;;;2.40;2.30;;;23.90;67.00;;;;;;5066899;28;43987;-69
2022/06/17 07:57:41;;;;;;;2.20;2.20;;;23.70;67.10;;;;;;5067078;28;43985;-70
2022/06/17 08:00:12;;;;;;;2.47;2.30;;;23.50;67.90;;;;;;5067346;28;43861;-69
2022/06/17 08:02:42;;;;;;;2.00;2.00;;;23.40;68.30;;;;;;5060587;28;43795;-69
2022/06/17 08:05:11;;;;;;;2.13;2.03;;;23.20;68.60;;;;;;5066423;28;44052;-69
2022/06/17 08:07:43;;;;;;;2.30;2.20;;;23.20;69.00;;;;;;5066957;28;43742;-69
2022/06/17 08:10:12;;;;;;;2.00;2.00;;;23.00;69.20;;;;;;5067187;28;44015;-70
2022/06/17 08:12:40;;;;;;;2.10;2.10;;;23.00;69.50;;;;;;5066570;28;43963;-70
2022/06/17 08:15:08;;;;;;;1.97;1.97;;;22.90;69.60;;;;;;5066166;28;44016;-69
2022/06/17 08:17:37;;;;;;;2.27;2.27;;;22.90;69.90;;;;;;5066633;28;43892;-70
2022/06/17 08:20:09;;;;;;;2.30;2.20;;;22.80;70.00;;;;;;5066795;28;43986;-69
2022/06/17 08:22:41;;;;;;;2.07;2.07;;;22.80;70.10;;;;;;5066461;28;44016;-69
2022/06/17 08:25:10;;;;;;;2.23;2.13;;;22.80;70.20;;;;;;5066430;28;43767;-69
2022/06/17 08:27:42;;;;;;;2.47;2.37;;;22.80;70.30;;;;;;5066282;28;44068;-68
2022/06/17 08:30:13;;;;;;;2.10;2.10;;;22.80;70.30;;;;;;5066936;28;43377;-69
2022/06/17 08:32:48;;;;;;;2.20;2.20;;;22.80;70.40;;;;;;5066355;28;44833;-70
2022/06/17 08:35:17;;;;;;;2.53;2.43;;;22.70;71.10;;;;;;5066229;28;44006;-69
2022/06/17 08:37:52;;;;;;;2.20;2.10;;;22.80;71.40;;;;;;5066575;28;43978;-69
2022/06/17 08:40:37;;;;;;;2.00;2.00;;;22.90;70.90;;;;;;5065271;28;43912;-70
2022/06/17 08:43:31;;;;;;;2.33;2.23;;;23.10;70.30;;;;;;5065983;28;43837;-70
2022/06/17 08:46:05;;;;;;;2.23;2.17;;;23.30;69.70;;;;;;5066384;28;43997;-68
2022/06/17 08:48:40;;;;;;;2.40;2.30;;;23.50;69.00;;;;;;5066102;28;43802;-69
2022/06/17 08:51:18;;;;;;;1.87;1.87;;;23.70;68.60;;;;;;5060089;28;44019;-69
2022/06/17 08:54:04;;;;;;;2.30;2.20;;;23.90;68.00;;;;;;5065960;28;44090;-69
2022/06/17 08:56:36;;;;;;;2.20;2.20;;;24.00;67.70;;;;;;5066008;28;43917;-69
2022/06/17 08:59:13;;;;;;;2.00;1.97;;;24.10;67.00;;;;;;5068079;28;44068;-69
2022/06/17 09:01:47;;;;;;;2.30;2.20;;;24.00;67.00;;;;;;5070022;28;43959;-69
2022/06/17 09:04:24;;;;;;;2.10;2.10;;;23.90;67.30;;;;;;5062462;28;43956;-70
2022/06/17 09:07:00;;;;;;;1.90;1.90;;;23.70;67.60;;;;;;5062380;28;43923;-69
2022/06/17 09:10:04;;;;;;;2.17;2.13;;;23.50;68.20;;;;;;5069708;28;43994;-68
2022/06/17 09:12:38;;;;;;;2.00;2.00;;;23.40;68.60;;;;;;5063662;28;43343;-69
2022/06/17 09:15:11;;;;;;;2.00;2.00;;;23.20;68.90;;;;;;5068968;28;43917;-69
2022/06/17 09:17:44;;;;;;;2.03;2.03;;;23.10;69.20;;;;;;5069081;28;43880;-71
2022/06/17 09:20:13;;;;;;;1.87;1.87;;;23.00;69.50;;;;;;5069330;28;43991;-69
2022/06/17 09:22:43;;;;;;;2.03;2.03;;;22.90;69.60;;;;;;5069544;28;43895;-69
2022/06/17 09:25:16;;;;;;;2.03;2.03;;;22.90;69.90;;;;;;5068805;28;44013;-68
2022/06/17 09:27:47;;;;;;;1.90;1.90;;;22.80;70.00;;;;;;5069055;28;43994;-69
2022/06/17 09:30:16;;;;;;;1.83;1.83;;;22.80;70.20;;;;;;5069217;28;43757;-68
2022/06/17 09:32:46;;;;;;;2.10;2.10;;;22.80;70.30;;;;;;5069008;28;43913;-69
2022/06/17 09:35:23;;;;;;;2.10;2.10;;;22.80;71.10;;;;;;5067359;28;44911;-70
2022/06/17 09:37:53;;;;;;;2.17;2.10;;;22.80;70.50;;;;;;5068966;28;43841;-69
2022/06/17 09:40:24;;;;;;;1.93;1.93;;;22.70;70.40;;;;;;5069037;28;43932;-69
2022/06/17 09:42:57;;;;;;;1.60;1.60;;;22.70;70.50;;;;;;5069226;28;43873;-69
2022/06/17 09:45:28;;;;;;;1.90;1.90;;;22.70;70.50;;;;;;5061079;28;44246;-69
2022/06/17 09:47:58;;;;;;;2.10;2.10;;;22.70;71.20;;;;;;5068323;28;44066;-70
2022/06/17 09:50:29;;;;;;;1.63;1.63;;;22.80;71.50;;;;;;5067666;28;43395;-69
2022/06/17 09:52:59;;;;;;;2.03;2.00;;;22.90;71.20;;;;;;5069146;28;43615;-69
2022/06/17 09:55:29;;;;;;;2.00;2.00;;;23.10;70.60;;;;;;5068788;28;44938;-69
2022/06/17 09:58:00;;;;;;;1.80;1.80;;;23.30;70.10;;;;;;5068820;28;44296;-68
2022/06/17 10:00:31;;;;;;;2.03;2.03;;;23.40;69.50;;;;;;5069066;28;43416;-71
2022/06/17 10:03:12;;;;;;;1.80;1.80;;;23.60;68.90;;;;;;5069253;28;44403;-70
2022/06/17 10:05:43;;;;;;;1.90;1.80;;;23.80;68.50;;;;;;5068432;28;43948;-68
2022/06/17 10:08:15;;;;;;;1.90;1.80;;;23.90;68.00;;;;;;5068342;28;43441;-70
2022/06/17 10:10:47;;;;;;;1.83;1.83;;;24.00;67.70;;;;;;5067576;28;44010;-68
2022/06/17 10:13:21;;;;;;;2.00;2.00;;;24.10;67.30;;;;;;5068641;28;43964;-69
2022/06/17 10:18:39;;;;;;;1.80;1.80;;;23.90;67.70;;;;;;5037051;28;44033;-69
2022/06/17 10:21:21;;;;;;;1.83;1.83;;;23.70;68.20;;;;;;5068280;28;43956;-69
2022/06/17 10:23:53;;;;;;;1.77;1.77;;;23.60;68.30;;;;;;5068497;28;43348;-70
2022/06/17 10:26:28;;;;;;;1.87;1.87;;;23.40;68.60;;;;;;5068139;28;43881;-70
2022/06/17 10:29:06;;;;;;;1.77;1.77;;;23.30;68.90;;;;;;5068168;28;44079;-69
2022/06/17 10:31:35;;;;;;;1.67;1.67;;;23.20;69.30;;;;;;5068210;28;43276;-70
2022/06/17 10:34:06;;;;;;;1.80;1.80;;;23.10;69.60;;;;;;5068112;28;44327;-69
2022/06/17 10:36:40;;;;;;;1.70;1.70;;;23.00;69.70;;;;;;5067971;28;43928;-69
2022/06/17 10:39:10;;;;;;;1.50;1.50;;;23.00;70.00;;;;;;5067812;28;43451;-70
2022/06/17 10:41:38;;;;;;;1.90;1.90;;;22.90;70.00;;;;;;5067983;28;43857;-69
2022/06/17 10:44:09;;;;;;;1.77;1.77;;;22.90;70.20;;;;;;5066665;28;43981;-68
2022/06/17 10:46:39;;;;;;;1.70;1.70;;;22.90;70.30;;;;;;5068050;28;43979;-69
2022/06/17 10:49:11;;;;;;;1.70;1.70;;;22.80;70.30;;;;;;5067638;28;44311;-68
2022/06/17 10:51:39;;;;;;;1.90;1.90;;;22.80;70.40;;;;;;5067646;28;43905;-70
2022/06/17 10:54:12;;;;;;;2.10;2.00;;;22.80;70.40;;;;;;5066415;28;43546;-70
2022/06/17 10:56:41;;;;;;;1.70;1.70;;;22.80;70.50;;;;;;5067805;28;43753;-69
2022/06/17 10:59:14;;;;;;;1.90;1.90;;;22.80;71.10;;;;;;5067325;28;43842;-70
2022/06/17 11:01:53;;;;;;;1.90;1.90;;;22.80;71.20;;;;;;5067661;28;43891;-69
2022/06/17 11:04:24;;;;;;;1.80;1.80;;;22.90;71.90;;;;;;5066665;28;43810;-70
2022/06/17 11:06:54;;;;;;;1.53;1.53;;;23.10;70.70;;;;;;5066087;28;45812;-69
2022/06/17 11:09:24;;;;;;;1.73;1.73;;;23.30;70.30;;;;;;5067411;28;43951;-69
2022/06/17 11:12:06;;;;;;;1.80;1.80;;;23.40;69.60;;;;;;5067590;28;43892;-69
2022/06/17 11:14:42;;;;;;;1.53;1.53;;;23.60;69.20;;;;;;5067555;28;43922;-69
2022/06/17 11:17:16;;;;;;;1.60;1.60;;;23.80;68.50;;;;;;5067333;28;44719;-70
2022/06/17 11:19:46;;;;;;;1.63;1.63;;;23.90;68.00;;;;;;5067568;28;43420;-68
2022/06/17 11:22:20;;;;;;;1.60;1.60;;;24.00;67.50;;;;;;5067382;28;43400;-70
2022/06/17 11:24:52;;;;;;;1.83;1.83;;;24.00;67.70;;;;;;5067641;28;44059;-69
2022/06/17 11:27:25;;;;;;;1.63;1.63;;;23.90;67.90;;;;;;5061003;28;43962;-69
2022/06/17 11:29:55;;;;;;;1.50;1.50;;;23.70;68.20;;;;;;5060078;28;44867;-69
2022/06/17 11:32:31;;;;;;;1.63;1.63;;;23.60;68.40;;;;;;5067210;28;43924;-69
2022/06/17 11:35:01;;;;;;;1.63;1.53;;;23.40;68.50;;;;;;5067812;28;44083;-69
2022/06/17 11:37:32;;;;;;;1.77;1.77;;;23.30;68.90;;;;;;5067351;28;43692;-69
2022/06/17 11:40:12;;;;;;;1.70;1.70;;;23.20;69.30;;;;;;5067145;28;43852;-69
2022/06/17 11:42:48;;;;;;;1.80;1.80;;;23.10;69.60;;;;;;5067218;28;43857;-69
2022/06/17 11:45:19;;;;;;;1.70;1.70;;;23.00;69.80;;;;;;5065799;28;44087;-69
2022/06/17 11:47:49;;;;;;;1.60;1.60;;;23.00;70.10;;;;;;5066778;28;43872;-70
2022/06/17 11:50:19;;;;;;;1.57;1.57;;;22.90;70.10;;;;;;5066997;28;43985;-69
2022/06/17 11:52:47;;;;;;;1.57;1.57;;;22.90;70.30;;;;;;5075786;28;43933;-69
2022/06/17 11:55:15;;;;;;;1.40;1.40;;;22.90;71.10;;;;;;5060585;28;44020;-70
2022/06/17 11:58:03;;;;;;;1.47;1.47;;;22.80;70.40;;;;;;5063175;28;44058;-69
2022/06/17 12:00:46;;;;;;;1.60;1.60;;;22.80;70.50;;;;;;5067140;28;43928;-69
2022/06/17 12:03:15;;;;;;;1.53;1.53;;;22.80;70.60;;;;;;5066998;28;43990;-69
2022/06/17 12:05:43;;;;;;;1.70;1.70;;;22.80;71.40;;;;;;5067107;28;44252;-69
2022/06/17 12:08:15;;;;;;;1.63;1.63;;;22.80;70.70;;;;;;5066592;28;43977;-69
2022/06/17 12:10:47;;;;;;;1.50;1.50;;;22.80;70.60;;;;;;5066611;28;43822;-69
2022/06/17 12:13:24;;;;;;;1.60;1.60;;;22.80;71.60;;;;;;5066535;28;43887;-69
2022/06/17 12:15:58;;;;;;;1.50;1.50;;;22.90;71.20;;;;;;5060916;28;43942;-69
2022/06/17 12:18:27;;;;;;;1.50;1.50;;;23.00;70.90;;;;;;5066469;28;44838;-69
2022/06/17 12:21:04;;;;;;;1.50;1.50;;;23.20;70.40;;;;;;5066466;28;43947;-69
2022/06/17 12:23:34;;;;;;;1.50;1.50;;;23.30;69.90;;;;;;5066722;28;44086;-70
2022/06/17 12:26:05;;;;;;;1.37;1.37;;;23.50;69.30;;;;;;5066749;28;43939;-68
2022/06/17 12:28:37;;;;;;;2.17;1.53;;;23.70;68.90;;;;;;5066363;28;44052;-69
2022/06/17 12:31:08;;;;;;;1.40;1.40;;;23.80;68.40;;;;;;5066212;28;44030;-69
2022/06/17 12:33:39;;;;;;;1.77;1.77;;;24.00;67.90;;;;;;5067795;28;43315;-70
2022/06/17 12:36:12;;;;;;;1.73;1.73;;;24.00;67.60;;;;;;5070243;28;43943;-68
2022/06/17 12:38:44;;;;;;;1.40;1.40;;;24.00;67.70;;;;;;5070023;28;43908;-69
2022/06/17 12:41:15;;;;;;;1.90;1.80;;;23.90;68.10;;;;;;5069938;28;43869;-68
2022/06/17 12:43:47;;;;;;;1.40;1.40;;;23.70;68.40;;;;;;5069909;28;43960;-69
2022/06/17 12:46:21;;;;;;;1.50;1.50;;;23.50;68.40;;;;;;5063998;28;44075;-69
2022/06/17 12:48:51;;;;;;;1.50;1.50;;;23.40;68.90;;;;;;5069474;28;44213;-69
2022/06/17 12:54:16;;;;;;;1.70;1.70;;;23.10;69.40;;;;;;5069737;28;44050;-69
2022/06/17 12:56:49;;;;;;;1.40;1.40;;;23.10;69.90;;;;;;5070026;28;43366;-69
2022/06/17 12:59:37;;;;;;;1.50;1.50;;;23.00;70.10;;;;;;5069274;28;44779;-68
2022/06/17 13:02:08;;;;;;;1.57;1.47;;;22.90;70.20;;;;;;5063470;28;45087;-68
2022/06/17 13:04:50;;;;;;;1.60;1.60;;;22.90;70.40;;;;;;5069621;28;43399;-69
2022/06/17 13:07:19;;;;;;;1.60;1.60;;;22.90;70.50;;;;;;5069966;28;43320;-69
2022/06/17 13:09:54;;;;;;;1.90;1.90;;;22.80;70.60;;;;;;5069057;28;43993;-69
2022/06/17 13:12:24;;;;;;;1.60;1.60;;;22.80;70.60;;;;;;5067997;28;45180;-69
2022/06/17 13:14:58;;;;;;;1.73;1.73;;;22.80;70.80;;;;;;5069047;28;43446;-68
2022/06/17 13:17:30;;;;;;;1.90;1.80;;;22.80;70.80;;;;;;5069753;28;43920;-70
2022/06/17 13:20:03;;;;;;;1.67;1.67;;;22.80;70.90;;;;;;5062864;28;43836;-69
2022/06/17 13:22:34;;;;;;;1.80;1.80;;;22.80;71.60;;;;;;5063464;28;44118;-69
2022/06/17 13:25:06;;;;;;;1.70;1.70;;;22.90;71.40;;;;;;5069250;28;43951;-69